ADDS METAR Data INFO
IDs: Format: Raw Decoded Include TAF

Data at: 0352 UTC 19 Jul 2018

KHYS 190256Z AUTO 12008KT 10SM CLR 26/23 A2990 RMK AO2 SLP110 T02560228 56009
KHYS 190156Z AUTO 11006KT 10SM CLR 27/23 A2991 RMK AO2 SLP112 T02720228
KHYS 190056Z AUTO 09006KT 10SM CLR 29/23 A2992 RMK AO2 SLP115 T02940228
KHYS 182356Z AUTO 09006KT 10SM CLR 30/22 A2993 RMK AO2 SLP117 T03000222 10306 20244 58013
KHYS 182256Z AUTO 10005KT 10SM SCT038 30/22 A2995 RMK AO2 SLP124 T03000222
KHYS 182156Z AUTO 09004KT 10SM FEW032 30/22 A2996 RMK AO2 SLP128 T03000222
KHYS 182056Z AUTO 17007KT 10SM CLR 29/22 A2998 RMK AO2 SLP132 T02940222 56012
KHYS 181956Z AUTO 16010G15KT 10SM CLR 28/23 A2998 RMK AO2 SLP134 T02830228
KHYS 181930Z AUTO 18009KT 10SM FEW017 27/22 A2998 RMK AO2
KHYS 181856Z AUTO 16011KT 10SM BKN015 27/22 A2998 RMK AO2 SLP137 T02670222
KHYS 181820Z AUTO 16011KT 10SM OVC011 26/22 A3000 RMK AO2
KHYS 181756Z AUTO 15011KT 10SM OVC009 24/22 A3001 RMK AO2 CIG 005V013 SLP147 T02440217 10244 20222 58018
KHYS 181712Z AUTO 12013KT 10SM OVC005 24/22 A3002 RMK AO2
KHYS 181656Z AUTO 09013KT 10SM OVC003 23/22 A3003 RMK AO2 CIG 002V006 SLP155 T02280217
KHYS 181633Z AUTO 06012KT 3SM BR OVC003 22/22 A3005 RMK AO2
KHYS 181626Z AUTO 06013KT 2 1/2SM BR OVC003 22/22 A3006 RMK AO2
KHYS 181556Z AUTO 05011KT 1 3/4SM BR OVC003 22/22 A3006 RMK AO2 SLP166 T02220217
KHYS 181554Z AUTO 05010KT 1 3/4SM BR OVC003 22/22 A3007 RMK AO2
KHYS 181514Z AUTO 05007KT 2 1/2SM BR OVC003 23/22 A3006 RMK AO2 LTG DSNT N AND NE
KHYS 181456Z AUTO 04007KT 1 1/4SM BR BKN003 OVC008 23/22 A3006 RMK AO2 SLP165 T02280217 53008
KHYS 181450Z AUTO 03007KT 1 3/4SM BR BKN003 OVC008 23/22 A3006 RMK AO2 VIS 1V4
KHYS 181445Z AUTO 03008KT 2 1/2SM BR BKN005 OVC010 23/22 A3007 RMK AO2 VIS 1 1/4V5 CIG 003V007
KHYS 181435Z AUTO 04009KT 6SM BR BKN007 OVC012 23/22 A3005 RMK AO2 CIG 004V010
KHYS 181417Z AUTO 07008KT 9SM BKN005 OVC010 23/22 A3005 RMK AO2 CIG 003V008
KHYS 181356Z AUTO 05007KT 3SM BR BKN002 OVC010 23/22 A3005 RMK AO2 SLP160 T02280222
KHYS 181351Z AUTO 05008KT 3SM BR BKN002 OVC008 23/22 A3005 RMK AO2
KHYS 181326Z AUTO 08005KT 2 1/2SM BR OVC002 23/22 A3004 RMK AO2
KHYS 181311Z AUTO 07006KT 1 1/2SM BR OVC002 23/22 A3004 RMK AO2 VIS 1V2 1/2
KHYS 181302Z AUTO 07007KT 1 3/4SM BR OVC004 23/22 A3004 RMK AO2 VIS 3/4V4
KHYS 181256Z AUTO 07007KT 3SM BR OVC004 23/22 A3004 RMK AO2 SLP154 T02280222
KHYS 181156Z AUTO 07007KT 4SM BR OVC004 23/22 A3003 RMK AO2 SLP153 70060 T02280222 10228 20222 53001
KHYS 181120Z AUTO 07007KT 3SM BR OVC004 23/22 A3002 RMK AO2
KHYS 181056Z AUTO 08006KT 4SM BR OVC002 23/22 A3002 RMK AO2 SLP146 T02280217
KHYS 181026Z AUTO 09007KT 3SM BR OVC002 22/22 A3001 RMK AO2
KHYS 180956Z AUTO 10005KT 2SM BR OVC002 22/22 A3003 RMK AO2 SLP151 T02220217
KHYS 180952Z AUTO 10005KT 2 1/2SM BR OVC002 22/22 A3003 RMK AO2
KHYS 180941Z AUTO 08007KT 3SM BR OVC002 22/22 A3003 RMK AO2
KHYS 180856Z AUTO 09007KT 4SM BR OVC004 22/22 A3005 RMK AO2 SLP157 T02220217 56006
KHYS 180756Z AUTO 10008KT 5SM BR OVC004 22/22 A3005 RMK AO2 SLP158 T02220217
KHYS 180656Z AUTO 10010KT 6SM BR OVC004 23/22 A3004 RMK AO2 SLP156 T02280217
KHYS 180624Z AUTO 08007KT 7SM BKN004 23/22 A3005 RMK AO2
KHYS 180612Z AUTO 10009KT 8SM SCT004 SCT047 23/22 A3006 RMK AO2 TSNO
KHYS 180556Z AUTO 08009KT 10SM FEW047 23/22 A3006 RMK AO2 SLP164 T02280217 10294 20228 403060200 50010
KHYS 180456Z AUTO 08007KT 10SM CLR 23/22 A3007 RMK AO2 SLP168 T02330217
KHYS 180356Z AUTO 09007KT 10SM CLR 24/22 A3006 RMK AO2 SLP166 T02390217
KHYS 180256Z AUTO 06010KT 10SM CLR 24/21 A3003 RMK AO2 SLP156 T02440211 50000
KHYS 180156Z AUTO 09006KT 10SM CLR 26/21 A3004 RMK AO2 SLP158 T02610211
KHYS 180056Z AUTO 06007KT 10SM CLR 29/20 A3003 RMK AO2 SLP154 T02890200 TSNO
KHYS 172356Z AUTO 07008KT 10SM FEW041 29/20 A3003 RMK AO2 SLP152 T02940200 10306 20272 58009
KHYS 172256Z AUTO 04010KT 10SM FEW040 29/21 A3004 RMK AO2 SLP156 T02940206
KHYS 172156Z AUTO 04010KT 10SM CLR 30/21 A3005 RMK AO2 SLP158 T03000211
KHYS 172056Z AUTO 03011KT 10SM BKN047 30/21 A3006 RMK AO2 SLP160 T03000211 57005
KHYS 171956Z AUTO VRB06KT 10SM BKN038 BKN047 29/21 A3007 RMK AO2 SLP164 T02890211
KHYS 171856Z AUTO 31007KT 10SM CLR 28/21 A3007 RMK AO2 SLP164 T02830211
KHYS 171756Z AUTO 28006KT 10SM CLR 28/20 A3008 RMK AO2 SLP167 60060 T02780200 10278 20200 55003
KHYS 171656Z AUTO 20010KT 10SM SCT100 25/19 A3007 RMK AO2 SLP165 T02500194
KHYS 171556Z AUTO 16012KT 10SM CLR 23/19 A3006 RMK AO2 SLP162 T02330194